Time;durP1;ratioP1;P1;durP2;ratioP2;P2;SDS_P1;SDS_P2;PMS_P1;PMS_P2;Temp;Humidity;BMP_temperature;BMP_pressure;BME280_temperature;BME280_humidity;BME280_pressure;Samples;Min_cycle;Max_cycle;Signal;HPM_P1;HPM_P2
2023/11/20 02:55:30;;;;;;;;;;;-1.40;99.90;;;;;;5113000;27;19913;-89
2023/11/20 02:57:56;;;;;;;;;;;-1.40;99.90;;;;;;5143438;27;19920;-90
2023/11/20 03:00:21;;;;;;;;;;;-1.40;99.90;;;;;;5107859;28;19912;-90
2023/11/20 03:02:47;;;;;;;;;;;-1.30;99.90;;;;;;5112146;28;19912;-90
2023/11/20 03:05:12;;;;;;;;;;;-1.20;99.90;;;;;;5112095;28;19915;-90
2023/11/20 03:07:38;;;;;;;;;;;-1.10;99.90;;;;;;5112015;28;20006;-89
2023/11/20 03:10:04;;;;;;;;;;;-1.00;99.90;;;;;;5111893;28;19946;-89
2023/11/20 03:12:29;;;;;;;;;;;-0.90;99.90;;;;;;5110486;28;19915;-89
2023/11/20 03:14:55;;;;;;;;;;;-0.80;99.90;;;;;;5111814;28;19923;-89
2023/11/20 03:17:20;;;;;;;;;;;-0.70;99.90;;;;;;5110311;28;19908;-89
2023/11/20 03:19:46;;;;;;;;;;;-0.70;99.90;;;;;;5110300;28;19961;-90
2023/11/20 03:22:12;;;;;;;;;;;-0.60;99.90;;;;;;5111496;28;19915;-89
2023/11/20 03:24:37;;;;;;;;;;;-0.60;99.90;;;;;;5111617;28;19957;-89
2023/11/20 03:27:03;;;;;;;;;;;-0.50;99.90;;;;;;5111570;28;20310;-89
2023/11/20 03:29:29;;;;;;;;;;;-0.50;99.90;;;;;;5111581;28;19908;-90
2023/11/20 03:31:55;;;;;;;;;;;-0.40;99.90;;;;;;5110248;28;20010;-89
2023/11/20 03:34:20;;;;;;;;;;;-0.40;99.90;;;;;;5111337;28;19966;-89
2023/11/20 03:36:46;;;;;;;;;;;-0.40;99.90;;;;;;5111406;28;19908;-89
2023/11/20 03:39:11;;;;;;;;;;;-0.40;99.90;;;;;;5111351;28;19914;-90
2023/11/20 03:41:37;;;;;;;;;;;-0.30;99.90;;;;;;5109874;28;19991;-91
2023/11/20 03:44:02;;;;;;;;;;;-0.30;99.90;;;;;;5090942;28;19975;-91
2023/11/20 03:46:28;;;;;;;;;;;-0.30;99.90;;;;;;5109986;28;19908;-92
2023/11/20 03:48:53;;;;;;;;;;;-0.30;99.90;;;;;;5109988;28;20403;-93
2023/11/20 03:51:19;;;;;;;;;;;-0.30;99.90;;;;;;5111203;28;20335;-92
2023/11/20 03:53:45;;;;;;;;;;;-0.20;99.90;;;;;;5109588;28;20300;-92
2023/11/20 03:56:15;;;;;;;;;;;-0.20;99.90;;;;;;5109797;28;19912;-92
2023/11/20 03:58:41;;;;;;;;;;;-0.20;99.90;;;;;;5109424;28;20034;-93
2023/11/20 04:01:07;;;;;;;;;;;-0.20;99.90;;;;;;5109757;28;19912;-92
2023/11/20 04:03:33;;;;;;;;;;;-0.20;99.90;;;;;;5110927;28;19935;-93
2023/11/20 04:05:58;;;;;;;;;;;-0.20;99.90;;;;;;5102048;28;20018;-92
2023/11/20 04:08:24;;;;;;;;;;;-0.20;99.90;;;;;;5097707;28;19995;-93
2023/11/20 04:10:49;;;;;;;;;;;-0.20;99.90;;;;;;5092575;28;19982;-93
2023/11/20 04:13:15;;;;;;;;;;;-0.20;99.90;;;;;;5115519;27;19913;-93
2023/11/20 04:15:40;;;;;;;;;;;-0.20;99.90;;;;;;5096575;28;19909;-92
2023/11/20 04:18:06;;;;;;;;;;;-0.20;99.90;;;;;;5095747;28;19912;-91
2023/11/20 04:20:31;;;;;;;;;;;-0.20;99.90;;;;;;5095877;28;19915;-92
2023/11/20 04:22:57;;;;;;;;;;;-0.20;99.90;;;;;;5096832;28;19919;-92
2023/11/20 04:25:23;;;;;;;;;;;-0.20;99.90;;;;;;5094446;28;19908;-92
2023/11/20 04:27:51;;;;;;;;;;;-0.20;99.90;;;;;;5101192;28;19912;-92
2023/11/20 04:30:19;;;;;;;;;;;-0.10;99.90;;;;;;5096034;28;19913;-92
2023/11/20 04:32:45;;;;;;;;;;;-0.20;99.90;;;;;;5095875;28;20254;-93
2023/11/20 04:35:10;;;;;;;;;;;-0.20;99.90;;;;;;5094800;28;20015;-88
2023/11/20 04:37:36;;;;;;;;;;;-0.20;99.90;;;;;;5104028;28;19954;-88
2023/11/20 04:40:01;;;;;;;;;;;-0.20;99.90;;;;;;5115766;28;19908;-89
2023/11/20 04:42:27;;;;;;;;;;;-0.20;99.90;;;;;;5103622;28;19909;-89
2023/11/20 04:44:52;;;;;;;;;;;-0.20;99.90;;;;;;5096305;28;20002;-90
2023/11/20 04:47:18;;;;;;;;;;;-0.20;99.90;;;;;;5096421;28;19912;-89
2023/11/20 04:49:43;;;;;;;;;;;-0.20;99.90;;;;;;5095210;28;20006;-89
2023/11/20 04:52:09;;;;;;;;;;;-0.20;99.90;;;;;;5127911;27;20306;-89
2023/11/20 04:54:35;;;;;;;;;;;-0.20;99.90;;;;;;5094884;28;20273;-89
2023/11/20 04:57:00;;;;;;;;;;;-0.20;99.90;;;;;;5096110;28;19961;-90
2023/11/20 04:59:27;;;;;;;;;;;-0.10;99.90;;;;;;5096086;28;19966;-89
2023/11/20 05:01:53;;;;;;;;;;;-0.10;99.90;;;;;;5094586;28;19962;-90
2023/11/20 05:04:19;;;;;;;;;;;-0.10;99.90;;;;;;5096058;28;20284;-93
2023/11/20 05:06:45;;;;;;;;;;;-0.10;99.90;;;;;;5099045;28;19919;-92
2023/11/20 05:09:11;;;;;;;;;;;-0.10;99.90;;;;;;5094995;28;19912;-92
2023/11/20 05:11:37;;;;;;;;;;;-0.10;99.90;;;;;;5097074;28;19908;-92
2023/11/20 05:14:03;;;;;;;;;;;-0.10;99.90;;;;;;5095066;28;20006;-92
2023/11/20 05:16:28;;;;;;;;;;;-0.10;99.90;;;;;;5094541;28;20397;-92
2023/11/20 05:18:55;;;;;;;;;;;-0.20;99.90;;;;;;5095548;28;19908;-89
2023/11/20 05:21:20;;;;;;;;;;;-0.10;99.90;;;;;;5095507;28;19922;-89
2023/11/20 05:23:46;;;;;;;;;;;-0.10;99.90;;;;;;5094312;28;20347;-89
2023/11/20 05:26:11;;;;;;;;;;;-0.10;99.90;;;;;;5095595;28;20299;-88
2023/11/20 05:28:37;;;;;;;;;;;-0.10;99.90;;;;;;5094424;28;19916;-87
2023/11/20 05:31:04;;;;;;;;;;;-0.10;99.90;;;;;;5094216;28;19912;-87
2023/11/20 05:33:31;;;;;;;;;;;-0.20;99.90;;;;;;5093939;28;19916;-88
2023/11/20 05:35:56;;;;;;;;;;;-0.10;99.90;;;;;;5094291;28;19908;-87
2023/11/20 05:38:22;;;;;;;;;;;-0.10;99.90;;;;;;5095465;28;19914;-87
2023/11/20 05:40:47;;;;;;;;;;;-0.10;99.90;;;;;;5094395;28;19951;-87
2023/11/20 05:43:13;;;;;;;;;;;-0.10;99.90;;;;;;5094232;28;19908;-87
2023/11/20 05:45:38;;;;;;;;;;;-0.10;99.90;;;;;;5094106;28;19931;-87
2023/11/20 05:48:04;;;;;;;;;;;-0.10;99.90;;;;;;5095376;28;20387;-88
2023/11/20 05:50:29;;;;;;;;;;;-0.10;99.90;;;;;;5095758;28;20481;-89
2023/11/20 05:52:55;;;;;;;;;;;0.00;99.90;;;;;;5095227;28;20263;-88
2023/11/20 05:55:20;;;;;;;;;;;-0.10;99.90;;;;;;5093766;28;20367;-89
2023/11/20 05:57:46;;;;;;;;;;;0.00;99.90;;;;;;5128209;27;20250;-89
2023/11/20 06:00:12;;;;;;;;;;;0.00;99.90;;;;;;5093890;28;19908;-88
2023/11/20 06:02:38;;;;;;;;;;;0.00;99.90;;;;;;5095423;28;19908;-88
2023/11/20 06:05:04;;;;;;;;;;;0.00;99.90;;;;;;5095102;28;20287;-89
2023/11/20 06:07:29;;;;;;;;;;;0.00;99.90;;;;;;5095652;28;19916;-88
2023/11/20 06:09:55;;;;;;;;;;;0.00;99.90;;;;;;5095337;28;20376;-88
2023/11/20 06:12:20;;;;;;;;;;;0.00;99.90;;;;;;5093706;28;20376;-89
2023/11/20 06:14:46;;;;;;;;;;;0.00;99.90;;;;;;5095127;28;20349;-88
2023/11/20 06:17:11;;;;;;;;;;;0.00;99.90;;;;;;5093902;28;19935;-88
2023/11/20 06:19:37;;;;;;;;;;;0.00;99.90;;;;;;5095051;28;19908;-90
2023/11/20 06:22:02;;;;;;;;;;;0.00;99.90;;;;;;5095006;28;19916;-88
2023/11/20 06:24:28;;;;;;;;;;;0.00;99.90;;;;;;5094975;28;19909;-87
2023/11/20 06:26:54;;;;;;;;;;;0.00;99.90;;;;;;5080608;28;19908;-87
2023/11/20 06:29:20;;;;;;;;;;;0.10;99.90;;;;;;5075822;28;19938;-88
2023/11/20 06:31:45;;;;;;;;;;;0.00;99.90;;;;;;5073462;28;19934;-88
2023/11/20 06:34:11;;;;;;;;;;;0.00;99.90;;;;;;5106915;28;20315;-88
2023/11/20 06:36:37;;;;;;;;;;;0.00;99.90;;;;;;5090094;28;19998;-88
2023/11/20 06:39:05;;;;;;;;;;;0.10;99.90;;;;;;5074325;28;20303;-88
2023/11/20 06:41:31;;;;;;;;;;;0.10;99.90;;;;;;5073023;28;20011;-87
2023/11/20 06:43:58;;;;;;;;;;;0.10;99.90;;;;;;5114621;27;19916;-88
2023/11/20 06:46:25;;;;;;;;;;;0.00;99.90;;;;;;5093258;28;19915;-88
2023/11/20 06:48:51;;;;;;;;;;;0.00;99.90;;;;;;5093175;28;20336;-88
2023/11/20 06:51:16;;;;;;;;;;;0.00;99.90;;;;;;5093653;28;20295;-88
2023/11/20 06:53:43;;;;;;;;;;;0.00;99.90;;;;;;5126878;28;19931;-88
2023/11/20 06:56:19;;;;;;;;;;;0.00;99.90;;;;;;5093068;28;19908;-88
2023/11/20 06:58:45;;;;;;;;;;;0.00;99.90;;;;;;5094366;28;19993;-88
2023/11/20 07:01:11;;;;;;;;;;;0.00;99.90;;;;;;5094266;28;19916;-89
2023/11/20 07:03:39;;;;;;;;;;;0.00;99.90;;;;;;5092894;28;19915;-88
2023/11/20 07:06:05;;;;;;;;;;;0.00;99.90;;;;;;5092979;28;20016;-88
2023/11/20 07:08:30;;;;;;;;;;;0.00;99.90;;;;;;5127059;28;20442;-89
2023/11/20 07:10:59;;;;;;;;;;;0.10;99.90;;;;;;5092896;28;19914;-88
2023/11/20 07:13:25;;;;;;;;;;;0.00;99.90;;;;;;5092798;28;19915;-89
2023/11/20 07:15:50;;;;;;;;;;;0.10;99.90;;;;;;5094523;28;19912;-88
2023/11/20 07:18:16;;;;;;;;;;;0.10;99.90;;;;;;5094124;28;19908;-88
2023/11/20 07:20:42;;;;;;;;;;;0.10;99.90;;;;;;5092835;28;19915;-88
2023/11/20 07:23:08;;;;;;;;;;;0.10;99.90;;;;;;5092600;28;19919;-88
2023/11/20 07:25:34;;;;;;;;;;;0.10;99.90;;;;;;5094050;28;19908;-89
2023/11/20 07:28:02;;;;;;;;;;;0.10;99.90;;;;;;5093953;28;20383;-88
2023/11/20 07:30:31;;;;;;;;;;;0.20;99.90;;;;;;5093990;28;19954;-88
2023/11/20 07:32:57;;;;;;;;;;;0.20;99.90;;;;;;5093901;28;19915;-89
2023/11/20 07:35:23;;;;;;;;;;;0.20;99.90;;;;;;5093838;28;19912;-88
2023/11/20 07:37:48;;;;;;;;;;;0.30;99.90;;;;;;5092664;28;19908;-88
2023/11/20 07:40:15;;;;;;;;;;;0.30;99.90;;;;;;5093063;28;19915;-88
2023/11/20 07:42:41;;;;;;;;;;;0.30;99.90;;;;;;5097658;28;20385;-88
2023/11/20 07:45:08;;;;;;;;;;;0.30;99.90;;;;;;5096204;28;19916;-88
2023/11/20 07:47:34;;;;;;;;;;;0.30;99.90;;;;;;5097083;28;19912;-88
2023/11/20 07:49:59;;;;;;;;;;;0.30;99.90;;;;;;5097116;28;19908;-88
2023/11/20 07:52:25;;;;;;;;;;;0.30;99.90;;;;;;5094304;28;20379;-88
2023/11/20 07:54:51;;;;;;;;;;;0.30;99.90;;;;;;5095497;28;19928;-88
2023/11/20 07:57:18;;;;;;;;;;;0.30;99.90;;;;;;5096982;28;19913;-88
2023/11/20 07:59:44;;;;;;;;;;;0.30;99.90;;;;;;5096884;28;20251;-88
2023/11/20 08:02:10;;;;;;;;;;;0.30;99.90;;;;;;5095542;28;20002;-89
2023/11/20 08:04:35;;;;;;;;;;;0.30;99.90;;;;;;5095343;28;20010;-89
2023/11/20 08:07:02;;;;;;;;;;;0.40;99.90;;;;;;5095547;28;19908;-89
2023/11/20 08:09:28;;;;;;;;;;;0.40;99.90;;;;;;5118299;27;19999;-89
2023/11/20 08:11:54;;;;;;;;;;;0.40;99.90;;;;;;5096690;28;19912;-88
2023/11/20 08:14:19;;;;;;;;;;;0.40;99.90;;;;;;5096547;28;20068;-89
2023/11/20 08:16:46;;;;;;;;;;;0.50;99.90;;;;;;5095220;28;19991;-88
2023/11/20 08:19:14;;;;;;;;;;;0.50;99.90;;;;;;5096601;28;19915;-88
2023/11/20 08:21:40;;;;;;;;;;;0.50;99.90;;;;;;5095541;28;19944;-89
2023/11/20 08:24:07;;;;;;;;;;;0.50;99.90;;;;;;5097764;28;19908;-87
2023/11/20 08:26:33;;;;;;;;;;;0.50;99.90;;;;;;5091968;28;19915;-89
2023/11/20 08:29:08;;;;;;;;;;;0.50;99.90;;;;;;5097904;28;20365;-90
2023/11/20 08:31:34;;;;;;;;;;;0.60;99.90;;;;;;5096743;28;19912;-88
2023/11/20 08:34:00;;;;;;;;;;;0.50;99.90;;;;;;5098344;28;19927;-89
2023/11/20 08:36:25;;;;;;;;;;;0.50;99.90;;;;;;5094928;28;19908;-88
2023/11/20 08:38:51;;;;;;;;;;;0.50;99.90;;;;;;5096228;28;19912;-89
2023/11/20 08:41:16;;;;;;;;;;;0.40;99.90;;;;;;5096860;28;19948;-88
2023/11/20 08:43:42;;;;;;;;;;;0.40;99.90;;;;;;5095277;28;20276;-88
2023/11/20 08:46:08;;;;;;;;;;;0.40;99.90;;;;;;5095653;28;19972;-88
2023/11/20 08:48:34;;;;;;;;;;;0.40;99.90;;;;;;5131099;27;20447;-89
2023/11/20 08:51:00;;;;;;;;;;;0.40;99.90;;;;;;5094927;28;20308;-88
2023/11/20 08:53:26;;;;;;;;;;;0.40;99.90;;;;;;5094907;28;19916;-89
2023/11/20 08:55:51;;;;;;;;;;;0.40;99.90;;;;;;5095037;28;19942;-88
2023/11/20 08:58:17;;;;;;;;;;;0.40;99.90;;;;;;5096311;28;20345;-89
2023/11/20 09:00:43;;;;;;;;;;;0.40;99.90;;;;;;5094918;28;19914;-89
2023/11/20 09:03:08;;;;;;;;;;;0.40;99.90;;;;;;5094871;28;20002;-89
2023/11/20 09:05:34;;;;;;;;;;;0.40;99.90;;;;;;5129011;27;19908;-88
2023/11/20 09:07:59;;;;;;;;;;;0.40;99.90;;;;;;5097308;28;19911;-89
2023/11/20 09:10:25;;;;;;;;;;;0.40;99.90;;;;;;5094820;28;19908;-88
2023/11/20 09:12:54;;;;;;;;;;;0.40;99.90;;;;;;5096014;28;19957;-89
2023/11/20 09:15:20;;;;;;;;;;;0.40;99.90;;;;;;5101331;28;19912;-90
2023/11/20 09:17:45;;;;;;;;;;;0.40;99.90;;;;;;5114987;28;20307;-89
2023/11/20 09:20:12;;;;;;;;;;;0.40;99.90;;;;;;5117081;28;19908;-89
2023/11/20 09:22:39;;;;;;;;;;;0.40;99.90;;;;;;5113055;28;20474;-90
2023/11/20 09:25:06;;;;;;;;;;;0.40;99.90;;;;;;5091127;28;19935;-88
2023/11/20 09:27:32;;;;;;;;;;;0.40;99.90;;;;;;5077061;28;19915;-89
2023/11/20 09:29:58;;;;;;;;;;;0.40;99.90;;;;;;5074158;28;19909;-90
2023/11/20 09:32:23;;;;;;;;;;;0.40;99.90;;;;;;5075655;28;19908;-89
2023/11/20 09:34:49;;;;;;;;;;;0.40;99.90;;;;;;5075182;28;19958;-89
2023/11/20 09:37:14;;;;;;;;;;;0.40;99.90;;;;;;5073803;28;19908;-88
2023/11/20 09:39:42;;;;;;;;;;;0.40;99.90;;;;;;5096797;28;19916;-87
2023/11/20 09:42:08;;;;;;;;;;;0.40;99.90;;;;;;5093662;28;19934;-88
2023/11/20 09:44:38;;;;;;;;;;;0.50;99.90;;;;;;5116526;27;19999;-87
2023/11/20 09:47:04;;;;;;;;;;;0.60;99.90;;;;;;5093600;28;20007;-87
2023/11/20 09:49:31;;;;;;;;;;;0.60;99.90;;;;;;5092447;28;19947;-88
2023/11/20 09:51:57;;;;;;;;;;;0.70;99.90;;;;;;5097219;28;19912;-88
2023/11/20 09:54:24;;;;;;;;;;;0.80;99.90;;;;;;5093392;28;20292;-88
2023/11/20 09:56:50;;;;;;;;;;;0.80;99.90;;;;;;5103018;28;19912;-89
2023/11/20 09:59:16;;;;;;;;;;;0.90;99.90;;;;;;5095616;28;19912;-89
2023/11/20 10:01:42;;;;;;;;;;;1.10;99.90;;;;;;5094555;28;19908;-89
2023/11/20 10:04:08;;;;;;;;;;;1.10;99.90;;;;;;5093933;28;19908;-89
2023/11/20 10:06:35;;;;;;;;;;;1.20;99.90;;;;;;5094625;28;19914;-89
2023/11/20 10:09:02;;;;;;;;;;;1.30;99.90;;;;;;5095823;28;20361;-92
2023/11/20 10:11:30;;;;;;;;;;;1.30;99.90;;;;;;5094156;28;19918;-91
2023/11/20 10:13:56;;;;;;;;;;;1.40;99.90;;;;;;5090518;28;19916;-91
2023/11/20 10:16:26;;;;;;;;;;;1.40;99.90;;;;;;5090881;28;20007;-91
2023/11/20 10:18:52;;;;;;;;;;;1.40;99.90;;;;;;5090515;28;19974;-91
2023/11/20 10:21:21;;;;;;;;;;;1.40;99.90;;;;;;5090140;28;19916;-91
2023/11/20 10:24:09;;;;;;;;;;;1.40;99.90;;;;;;5092682;28;19995;-92
2023/11/20 10:26:34;;;;;;;;;;;1.40;99.90;;;;;;5099587;28;19908;-89
2023/11/20 10:29:00;;;;;;;;;;;1.40;99.90;;;;;;5098598;28;20391;-87
2023/11/20 10:31:31;;;;;;;;;;;1.30;99.90;;;;;;5094441;28;20356;-91
2023/11/20 10:34:06;;;;;;;;;;;1.30;99.90;;;;;;5119522;27;19969;-91
2023/11/20 10:36:35;;;;;;;;;;;1.30;99.90;;;;;;5094614;28;20404;-90
2023/11/20 10:39:01;;;;;;;;;;;1.30;99.90;;;;;;5092847;28;20015;-92
2023/11/20 10:41:29;;;;;;;;;;;1.30;99.90;;;;;;5093977;28;20284;-92
2023/11/20 10:43:55;;;;;;;;;;;1.30;99.90;;;;;;5091176;28;19912;-88
2023/11/20 10:46:23;;;;;;;;;;;1.30;99.90;;;;;;5093426;28;20482;-91
2023/11/20 10:48:49;;;;;;;;;;;1.30;99.90;;;;;;5094491;28;19961;-92
2023/11/20 10:51:18;;;;;;;;;;;1.30;99.90;;;;;;5092488;28;19991;-93
2023/11/20 10:53:48;;;;;;;;;;;1.30;99.90;;;;;;5092584;28;19955;-91
2023/11/20 10:56:15;;;;;;;;;;;1.30;99.90;;;;;;5068733;28;20349;-93
2023/11/20 10:58:43;;;;;;;;;;;1.30;99.90;;;;;;5066844;28;19923;-92
2023/11/20 11:01:09;;;;;;;;;;;1.20;99.90;;;;;;5062135;28;19916;-92
2023/11/20 11:03:36;;;;;;;;;;;1.30;99.90;;;;;;5057662;28;19912;-92
2023/11/20 11:06:04;;;;;;;;;;;1.20;99.90;;;;;;5069613;28;19912;-93
2023/11/20 11:08:31;;;;;;;;;;;1.20;99.90;;;;;;5055976;28;20250;-92
2023/11/20 11:10:57;;;;;;;;;;;1.20;99.90;;;;;;5086334;28;19912;-93
2023/11/20 11:13:24;;;;;;;;;;;1.20;99.90;;;;;;5076961;28;19908;-93
2023/11/20 11:15:51;;;;;;;;;;;1.20;99.90;;;;;;5077896;28;19958;-94
2023/11/20 11:18:21;;;;;;;;;;;1.20;99.90;;;;;;5080272;28;19912;-94
2023/11/20 11:20:53;;;;;;;;;;;1.20;99.90;;;;;;5081449;28;19908;-95
2023/11/20 11:23:39;;;;;;;;;;;1.30;99.90;;;;;;5082019;28;19915;-93
2023/11/20 11:26:21;;;;;;;;;;;1.30;99.90;;;;;;5080669;28;20300;-94
2023/11/20 11:28:52;;;;;;;;;;;1.30;99.90;;;;;;5081264;28;19914;-92
2023/11/20 11:31:18;;;;;;;;;;;1.30;99.90;;;;;;5080926;28;19937;-93
2023/11/20 11:34:02;;;;;;;;;;;1.30;99.90;;;;;;5080692;28;19998;-92
2023/11/20 11:36:28;;;;;;;;;;;1.30;99.90;;;;;;5080495;28;20002;-93
2023/11/20 11:39:32;;;;;;;;;;;1.30;99.90;;;;;;5080339;28;19912;-93
2023/11/20 11:42:13;;;;;;;;;;;1.30;99.90;;;;;;5020211;28;19909;-94
2023/11/20 11:45:01;;;;;;;;;;;1.30;99.90;;;;;;5075152;28;19908;-94
2023/11/20 11:47:27;;;;;;;;;;;1.30;99.90;;;;;;5072862;28;20307;-93
2023/11/20 11:49:55;;;;;;;;;;;1.30;99.90;;;;;;5060180;28;19908;-93
2023/11/20 11:52:27;;;;;;;;;;;1.30;99.90;;;;;;5060393;28;20384;-92
2023/11/20 11:55:12;;;;;;;;;;;1.30;99.90;;;;;;5079992;28;19931;-92
2023/11/20 11:57:41;;;;;;;;;;;1.30;99.90;;;;;;5076652;28;19909;-94
2023/11/20 12:00:13;;;;;;;;;;;1.30;99.90;;;;;;5109390;28;20306;-92
2023/11/20 12:02:51;;;;;;;;;;;1.30;99.90;;;;;;5117399;28;19951;-94
2023/11/20 12:05:19;;;;;;;;;;;1.30;99.90;;;;;;5117522;28;19999;-92
2023/11/20 12:07:52;;;;;;;;;;;1.30;99.90;;;;;;5117490;28;19908;-93
2023/11/20 12:10:37;;;;;;;;;;;1.30;99.90;;;;;;5117231;28;19919;-93
2023/11/20 12:13:03;;;;;;;;;;;1.30;99.90;;;;;;5117404;28;20356;-94
2023/11/20 12:15:47;;;;;;;;;;;1.30;99.90;;;;;;5118067;28;19911;-92
2023/11/20 12:18:12;;;;;;;;;;;1.20;99.90;;;;;;5117318;28;19911;-94
2023/11/20 12:20:39;;;;;;;;;;;1.30;99.90;;;;;;5117285;28;19999;-94
2023/11/20 12:23:07;;;;;;;;;;;1.30;99.90;;;;;;5117212;28;20378;-92
2023/11/20 12:25:37;;;;;;;;;;;1.30;99.90;;;;;;5112005;28;19908;-95
2023/11/20 15:30:29;;;;;;;;;;;-0.60;99.90;;;;;;5058198;27;2259868;-88
2023/11/20 15:32:56;;;;;;;;;;;-0.60;99.90;;;;;;5103921;28;19911;-87
2023/11/20 15:35:22;;;;;;;;;;;-0.60;99.90;;;;;;5121547;28;19912;-88
2023/11/20 15:37:48;;;;;;;;;;;-0.50;99.90;;;;;;5121267;28;19923;-88
2023/11/20 15:40:14;;;;;;;;;;;-0.40;99.90;;;;;;5117912;28;20280;-87
2023/11/20 15:42:42;;;;;;;;;;;-0.30;99.90;;;;;;5102011;28;19959;-87
2023/11/20 15:45:08;;;;;;;;;;;-0.20;99.90;;;;;;5121849;28;19916;-87
2023/11/20 15:47:33;;;;;;;;;;;-0.10;99.90;;;;;;5115012;28;19916;-86
2023/11/20 15:49:59;;;;;;;;;;;-0.10;99.90;;;;;;5117345;28;19958;-89
2023/11/20 15:52:25;;;;;;;;;;;0.00;99.90;;;;;;5125738;28;20395;-87
2023/11/20 15:54:51;;;;;;;;;;;0.10;99.90;;;;;;5122067;28;19911;-88
2023/11/20 15:57:17;;;;;;;;;;;0.10;99.90;;;;;;5122793;28;19907;-88
2023/11/20 15:59:42;;;;;;;;;;;0.20;99.90;;;;;;5122190;28;19923;-87
2023/11/20 16:02:09;;;;;;;;;;;0.20;99.90;;;;;;5098611;28;20337;-88
2023/11/20 16:04:37;;;;;;;;;;;0.30;99.90;;;;;;5110273;28;19908;-88
2023/11/20 16:07:03;;;;;;;;;;;0.30;99.90;;;;;;5112241;28;20314;-94
2023/11/20 16:09:28;;;;;;;;;;;0.40;99.90;;;;;;5104350;28;19930;-87
2023/11/20 16:11:57;;;;;;;;;;;0.40;99.90;;;;;;5099940;28;19908;-93
2023/11/20 16:14:23;;;;;;;;;;;0.40;99.90;;;;;;5105408;28;19911;-89
2023/11/20 16:16:50;;;;;;;;;;;0.40;99.90;;;;;;5121209;28;19908;-88
2023/11/20 16:19:16;;;;;;;;;;;0.40;99.90;;;;;;5114829;28;19956;-87
2023/11/20 16:21:44;;;;;;;;;;;0.50;99.90;;;;;;5110547;28;19948;-87
2023/11/20 16:24:09;;;;;;;;;;;0.60;99.90;;;;;;5092913;28;19908;-87
2023/11/20 16:26:35;;;;;;;;;;;0.60;99.90;;;;;;5111157;28;19909;-88
2023/11/20 16:29:01;;;;;;;;;;;0.60;99.90;;;;;;5095326;28;19924;-86
2023/11/20 16:31:26;;;;;;;;;;;0.70;99.90;;;;;;5083834;28;19954;-86
2023/11/20 16:33:52;;;;;;;;;;;0.70;99.90;;;;;;5092679;28;19919;-87
2023/11/20 16:36:17;;;;;;;;;;;0.70;99.90;;;;;;5111116;28;19957;-88
2023/11/20 16:38:43;;;;;;;;;;;0.70;99.90;;;;;;5092049;28;19919;-89
2023/11/20 16:41:08;;;;;;;;;;;0.70;99.90;;;;;;5100874;28;19912;-88
2023/11/20 16:43:35;;;;;;;;;;;0.80;99.90;;;;;;5078991;28;19908;-88
2023/11/20 16:46:02;;;;;;;;;;;0.80;99.90;;;;;;5075279;28;19923;-88
2023/11/20 16:48:28;;;;;;;;;;;0.80;99.90;;;;;;5086477;28;19919;-88
2023/11/20 16:50:53;;;;;;;;;;;0.80;99.90;;;;;;5084028;28;19918;-89
2023/11/20 16:53:19;;;;;;;;;;;0.80;99.90;;;;;;5094816;28;19920;-88
2023/11/20 16:55:45;;;;;;;;;;;0.80;99.90;;;;;;5105583;28;19919;-88
2023/11/20 16:58:10;;;;;;;;;;;0.80;99.90;;;;;;5103196;28;19919;-89
2023/11/20 17:00:36;;;;;;;;;;;0.80;99.90;;;;;;5115530;28;19912;-90
2023/11/20 17:03:02;;;;;;;;;;;0.80;99.90;;;;;;5076651;28;19912;-86
2023/11/20 17:05:27;;;;;;;;;;;0.80;99.90;;;;;;5103015;28;19970;-87
2023/11/20 17:07:53;;;;;;;;;;;0.80;99.90;;;;;;5084803;28;20441;-90
2023/11/20 17:10:19;;;;;;;;;;;0.80;99.90;;;;;;5088337;28;20276;-90
2023/11/20 17:12:45;;;;;;;;;;;0.80;99.90;;;;;;5077003;28;19972;-89
2023/11/20 17:15:10;;;;;;;;;;;0.80;99.90;;;;;;5078838;28;19916;-88
2023/11/20 17:17:36;;;;;;;;;;;0.90;99.90;;;;;;5097906;28;19912;-89
2023/11/20 17:20:04;;;;;;;;;;;0.90;99.90;;;;;;5095509;28;19999;-89
2023/11/20 17:22:32;;;;;;;;;;;0.90;99.90;;;;;;5078882;28;19912;-89
2023/11/20 17:24:58;;;;;;;;;;;0.90;99.90;;;;;;5078975;28;19951;-90
2023/11/20 17:27:24;;;;;;;;;;;0.90;99.90;;;;;;5074302;28;19992;-91
2023/11/20 17:29:49;;;;;;;;;;;0.90;99.90;;;;;;5075886;28;19931;-91
2023/11/20 17:32:18;;;;;;;;;;;0.90;99.90;;;;;;5097207;28;19916;-91
2023/11/20 17:34:46;;;;;;;;;;;0.90;99.90;;;;;;5073450;28;20007;-91
2023/11/20 17:37:12;;;;;;;;;;;0.90;99.90;;;;;;5089181;28;19920;-92
2023/11/20 17:39:41;;;;;;;;;;;0.80;99.90;;;;;;5073443;28;19973;-92
2023/11/20 17:42:08;;;;;;;;;;;0.80;99.90;;;;;;5089771;28;19916;-90
2023/11/20 17:44:37;;;;;;;;;;;0.80;99.90;;;;;;5094120;28;19947;-91
2023/11/20 17:47:04;;;;;;;;;;;0.80;99.90;;;;;;5075735;28;19913;-91
2023/11/20 17:49:30;;;;;;;;;;;0.80;99.90;;;;;;5082108;28;19920;-90
2023/11/20 17:51:56;;;;;;;;;;;0.90;99.90;;;;;;5087646;28;19928;-90
2023/11/20 17:54:21;;;;;;;;;;;0.90;99.90;;;;;;5074189;28;19912;-87
2023/11/20 17:56:54;;;;;;;;;;;0.90;99.90;;;;;;5074059;28;19920;-86
2023/11/20 17:59:23;;;;;;;;;;;0.80;99.90;;;;;;5078999;28;19978;-89
2023/11/20 18:01:51;;;;;;;;;;;0.90;99.90;;;;;;5096906;28;19912;-92
2023/11/20 18:04:16;;;;;;;;;;;0.80;99.90;;;;;;5085876;28;19918;-93
2023/11/20 18:06:42;;;;;;;;;;;0.90;99.90;;;;;;5076565;28;19916;-92
2023/11/20 18:09:09;;;;;;;;;;;0.90;99.90;;;;;;5076613;28;21812;-92
2023/11/20 18:11:36;;;;;;;;;;;0.80;99.90;;;;;;5077406;28;20406;-91
2023/11/20 18:14:02;;;;;;;;;;;0.80;99.90;;;;;;5098623;28;19912;-92
2023/11/20 18:16:28;;;;;;;;;;;0.80;99.90;;;;;;5094687;28;19981;-90
2023/11/20 18:18:56;;;;;;;;;;;0.80;99.90;;;;;;5078360;28;19915;-95
2023/11/20 18:21:22;;;;;;;;;;;0.80;99.90;;;;;;5100210;28;20292;-94
2023/11/20 18:23:48;;;;;;;;;;;0.80;99.90;;;;;;5083231;28;19919;-94
2023/11/20 18:26:16;;;;;;;;;;;0.80;99.90;;;;;;5096900;28;20357;-94
2023/11/20 18:28:42;;;;;;;;;;;0.80;99.90;;;;;;5081319;28;19932;-92
2023/11/20 18:31:08;;;;;;;;;;;0.90;99.90;;;;;;5094137;28;19912;-93
2023/11/20 18:33:33;;;;;;;;;;;0.90;99.90;;;;;;5078179;28;19935;-94
2023/11/20 18:36:03;;;;;;;;;;;0.90;99.90;;;;;;5085663;28;19912;-93
2023/11/20 18:38:28;;;;;;;;;;;0.90;99.90;;;;;;5083236;28;20010;-93
2023/11/20 18:40:54;;;;;;;;;;;0.80;99.90;;;;;;5079386;28;19951;-91
2023/11/20 18:43:23;;;;;;;;;;;0.80;99.90;;;;;;5096356;28;19916;-92
2023/11/20 18:45:48;;;;;;;;;;;0.80;99.90;;;;;;5085500;28;19911;-92
2023/11/20 18:48:14;;;;;;;;;;;0.80;99.90;;;;;;5085002;28;19966;-90
2023/11/20 18:50:39;;;;;;;;;;;0.80;99.90;;;;;;5079943;28;20281;-93
2023/11/20 18:53:06;;;;;;;;;;;0.80;99.90;;;;;;5085090;28;19912;-93
2023/11/20 18:55:32;;;;;;;;;;;0.80;99.90;;;;;;5114146;28;19956;-95
2023/11/20 18:57:59;;;;;;;;;;;0.80;99.90;;;;;;5096196;28;19913;-93
2023/11/20 19:00:24;;;;;;;;;;;0.80;99.90;;;;;;5101342;28;19922;-92
2023/11/20 19:02:51;;;;;;;;;;;0.80;99.90;;;;;;5083134;28;20269;-94
2023/11/20 19:05:17;;;;;;;;;;;0.80;99.90;;;;;;5090846;28;19912;-94
2023/11/20 19:07:43;;;;;;;;;;;0.80;99.90;;;;;;5107545;28;19919;-95
2023/11/20 19:10:12;;;;;;;;;;;0.80;99.90;;;;;;5094537;28;19926;-91
2023/11/20 19:12:44;;;;;;;;;;;0.80;99.90;;;;;;5081661;28;19912;-91
2023/11/20 19:15:10;;;;;;;;;;;0.80;99.90;;;;;;5073809;28;19912;-92
2023/11/20 19:17:35;;;;;;;;;;;0.80;99.90;;;;;;5086778;28;19935;-90
2023/11/20 19:20:01;;;;;;;;;;;0.80;99.90;;;;;;5077199;28;19918;-90
2023/11/20 19:22:27;;;;;;;;;;;0.80;99.90;;;;;;5083160;28;19934;-94
2023/11/20 19:24:53;;;;;;;;;;;0.80;99.90;;;;;;5067455;28;19920;-93
2023/11/20 19:27:18;;;;;;;;;;;0.80;99.90;;;;;;5076516;28;20272;-89
2023/11/20 19:29:44;;;;;;;;;;;0.70;99.90;;;;;;5083198;28;19931;-90
2023/11/20 19:32:13;;;;;;;;;;;0.80;99.90;;;;;;5092041;28;19916;-92
2023/11/20 19:34:40;;;;;;;;;;;0.80;99.90;;;;;;5077335;28;20368;-92
2023/11/20 19:37:08;;;;;;;;;;;0.80;99.90;;;;;;5078489;28;20007;-92
2023/11/20 19:39:34;;;;;;;;;;;0.80;99.90;;;;;;5070473;28;19915;-89
2023/11/20 19:42:00;;;;;;;;;;;0.80;99.90;;;;;;5073518;28;20254;-90
2023/11/20 19:44:28;;;;;;;;;;;0.80;99.90;;;;;;5075836;28;19941;-89
2023/11/20 19:46:53;;;;;;;;;;;0.80;99.90;;;;;;5076124;28;19912;-90
2023/11/20 19:49:19;;;;;;;;;;;0.80;99.90;;;;;;5076225;28;20358;-89
2023/11/20 19:51:45;;;;;;;;;;;0.80;99.90;;;;;;5094258;28;19934;-90
2023/11/20 19:54:11;;;;;;;;;;;0.80;99.90;;;;;;5094127;28;19912;-90
2023/11/20 19:56:36;;;;;;;;;;;0.80;99.90;;;;;;5093885;28;20011;-89
2023/11/20 19:59:02;;;;;;;;;;;0.80;99.90;;;;;;5078560;28;19917;-91
2023/11/20 20:01:27;;;;;;;;;;;0.80;99.90;;;;;;5084094;28;19912;-89
2023/11/20 20:03:54;;;;;;;;;;;0.70;99.90;;;;;;5083974;28;19914;-88
2023/11/20 20:08:17;;;;;;;;;;;0.70;99.90;;;;;;5091157;28;19919;-89
2023/11/20 20:10:43;;;;;;;;;;;0.70;99.90;;;;;;5089665;28;19913;-88
2023/11/20 20:13:09;;;;;;;;;;;0.70;99.90;;;;;;5091169;28;20275;-89
2023/11/20 20:15:36;;;;;;;;;;;0.70;99.90;;;;;;5089929;28;20250;-88
2023/11/20 20:18:02;;;;;;;;;;;0.70;99.90;;;;;;5091201;28;19999;-88
2023/11/20 20:20:28;;;;;;;;;;;0.70;99.90;;;;;;5091293;28;19951;-88
2023/11/20 20:22:56;;;;;;;;;;;0.70;99.90;;;;;;5090312;28;19909;-88